sensor_id;sensor_type;location;lat;lon;timestamp;pressure;altitude;pressure_sealevel;temperature;humidity
38227;BME280;24026;49.446;8.576;2023-05-25T00:00:34;101037.09;;;18.74;36.55
38227;BME280;24026;49.446;8.576;2023-05-25T00:02:54;101035.97;;;18.80;36.48
38227;BME280;24026;49.446;8.576;2023-05-25T00:05:15;101043.81;;;18.76;36.66
38227;BME280;24026;49.446;8.576;2023-05-25T00:07:38;101037.88;;;18.74;36.52
38227;BME280;24026;49.446;8.576;2023-05-25T00:09:58;101027.72;;;18.71;36.79
38227;BME280;24026;49.446;8.576;2023-05-25T00:12:19;101041.44;;;18.69;36.36
38227;BME280;24026;49.446;8.576;2023-05-25T00:14:39;101038.72;;;18.75;36.68
38227;BME280;24026;49.446;8.576;2023-05-25T00:17:00;101038.16;;;18.73;36.54
38227;BME280;24026;49.446;8.576;2023-05-25T00:19:23;101038.75;;;18.69;36.65
38227;BME280;24026;49.446;8.576;2023-05-25T00:21:44;101044.13;;;18.69;36.54
38227;BME280;24026;49.446;8.576;2023-05-25T00:24:07;101034.41;;;18.74;36.30
38227;BME280;24026;49.446;8.576;2023-05-25T00:26:27;101036.84;;;18.70;36.31
38227;BME280;24026;49.446;8.576;2023-05-25T00:28:48;101039.31;;;18.66;36.36
38227;BME280;24026;49.446;8.576;2023-05-25T00:31:08;101033.97;;;18.61;36.73
38227;BME280;24026;49.446;8.576;2023-05-25T00:33:28;101030.72;;;18.64;36.67
38227;BME280;24026;49.446;8.576;2023-05-25T00:35:49;101032.91;;;18.57;36.79
38227;BME280;24026;49.446;8.576;2023-05-25T00:38:16;101035.59;;;18.57;36.93
38227;BME280;24026;49.446;8.576;2023-05-25T00:40:38;101029.41;;;18.57;36.74
38227;BME280;24026;49.446;8.576;2023-05-25T00:43:00;101034.53;;;18.58;36.76
38227;BME280;24026;49.446;8.576;2023-05-25T00:45:20;101036.09;;;18.59;36.77
38227;BME280;24026;49.446;8.576;2023-05-25T00:47:41;101035.84;;;18.61;36.41
38227;BME280;24026;49.446;8.576;2023-05-25T00:50:05;101021.31;;;18.62;36.64
38227;BME280;24026;49.446;8.576;2023-05-25T00:52:27;101028.03;;;18.59;36.59
38227;BME280;24026;49.446;8.576;2023-05-25T00:54:50;101032.66;;;18.54;36.64
38227;BME280;24026;49.446;8.576;2023-05-25T00:57:13;101032.41;;;18.50;36.86
38227;BME280;24026;49.446;8.576;2023-05-25T00:59:37;101041.25;;;18.56;36.80
38227;BME280;24026;49.446;8.576;2023-05-25T01:02:09;101038.34;;;18.47;36.59
38227;BME280;24026;49.446;8.576;2023-05-25T01:04:33;101037.00;;;18.49;36.86
38227;BME280;24026;49.446;8.576;2023-05-25T01:06:55;101034.31;;;18.49;36.84
38227;BME280;24026;49.446;8.576;2023-05-25T01:09:18;101035.63;;;18.52;36.67
38227;BME280;24026;49.446;8.576;2023-05-25T01:11:43;101039.16;;;18.47;36.73
38227;BME280;24026;49.446;8.576;2023-05-25T01:14:05;101040.50;;;18.50;36.74
38227;BME280;24026;49.446;8.576;2023-05-25T01:16:25;101043.47;;;18.48;36.92
38227;BME280;24026;49.446;8.576;2023-05-25T01:18:46;101042.94;;;18.46;36.78
38227;BME280;24026;49.446;8.576;2023-05-25T01:21:08;101059.41;;;18.40;37.08
38227;BME280;24026;49.446;8.576;2023-05-25T01:23:35;101061.53;;;18.43;36.67
38227;BME280;24026;49.446;8.576;2023-05-25T01:25:59;101051.00;;;18.46;36.80
38227;BME280;24026;49.446;8.576;2023-05-25T01:28:29;101049.94;;;18.42;36.46
38227;BME280;24026;49.446;8.576;2023-05-25T01:30:52;101055.09;;;18.39;36.73
38227;BME280;24026;49.446;8.576;2023-05-25T01:33:18;101063.44;;;18.37;36.98
38227;BME280;24026;49.446;8.576;2023-05-25T01:35:40;101063.16;;;18.39;36.80
38227;BME280;24026;49.446;8.576;2023-05-25T01:38:01;101059.66;;;18.38;36.85
38227;BME280;24026;49.446;8.576;2023-05-25T01:40:22;101057.00;;;18.33;36.74
38227;BME280;24026;49.446;8.576;2023-05-25T01:42:42;101056.47;;;18.36;36.59
38227;BME280;24026;49.446;8.576;2023-05-25T01:45:03;101050.53;;;18.34;37.32
38227;BME280;24026;49.446;8.576;2023-05-25T01:50:13;101046.78;;;18.30;36.84
38227;BME280;24026;49.446;8.576;2023-05-25T01:52:37;101055.13;;;18.28;37.02
38227;BME280;24026;49.446;8.576;2023-05-25T01:55:11;101056.78;;;18.24;36.92
38227;BME280;24026;49.446;8.576;2023-05-25T01:57:36;101051.91;;;18.31;36.99
38227;BME280;24026;49.446;8.576;2023-05-25T02:00:01;101046.53;;;18.26;36.94
38227;BME280;24026;49.446;8.576;2023-05-25T02:02:22;101046.00;;;18.29;36.92
38227;BME280;24026;49.446;8.576;2023-05-25T02:04:44;101059.44;;;18.29;37.24
38227;BME280;24026;49.446;8.576;2023-05-25T02:07:05;101059.47;;;18.24;36.86
38227;BME280;24026;49.446;8.576;2023-05-25T02:09:25;101056.78;;;18.24;37.00
38227;BME280;24026;49.446;8.576;2023-05-25T02:11:46;101058.66;;;18.24;37.04
38227;BME280;24026;49.446;8.576;2023-05-25T02:14:06;101056.25;;;18.22;37.28
38227;BME280;24026;49.446;8.576;2023-05-25T02:16:28;101060.78;;;18.27;37.15
38227;BME280;24026;49.446;8.576;2023-05-25T02:18:51;101067.56;;;18.24;37.13
38227;BME280;24026;49.446;8.576;2023-05-25T02:21:12;101064.03;;;18.24;37.29
38227;BME280;24026;49.446;8.576;2023-05-25T02:23:32;101061.63;;;18.22;37.14
38227;BME280;24026;49.446;8.576;2023-05-25T02:25:53;101062.72;;;18.21;37.10
38227;BME280;24026;49.446;8.576;2023-05-25T02:28:13;101061.91;;;18.15;37.09
38227;BME280;24026;49.446;8.576;2023-05-25T02:30:34;101068.13;;;18.16;37.30
38227;BME280;24026;49.446;8.576;2023-05-25T02:32:54;101072.41;;;18.17;37.29
38227;BME280;24026;49.446;8.576;2023-05-25T02:35:15;101062.75;;;18.16;37.17
38227;BME280;24026;49.446;8.576;2023-05-25T02:37:36;101060.59;;;18.13;37.43
38227;BME280;24026;49.446;8.576;2023-05-25T02:39:56;101059.78;;;18.12;37.55
38227;BME280;24026;49.446;8.576;2023-05-25T02:42:16;101057.09;;;18.12;37.65
38227;BME280;24026;49.446;8.576;2023-05-25T02:44:37;101058.69;;;18.13;37.62
38227;BME280;24026;49.446;8.576;2023-05-25T02:46:57;101059.25;;;18.10;37.65
38227;BME280;24026;49.446;8.576;2023-05-25T02:49:17;101055.50;;;18.11;37.42
38227;BME280;24026;49.446;8.576;2023-05-25T02:51:38;101052.00;;;18.11;37.71
38227;BME280;24026;49.446;8.576;2023-05-25T02:53:58;101052.00;;;18.11;37.69
38227;BME280;24026;49.446;8.576;2023-05-25T02:56:19;101054.41;;;18.07;37.88
38227;BME280;24026;49.446;8.576;2023-05-25T02:58:41;101049.06;;;18.02;37.92
38227;BME280;24026;49.446;8.576;2023-05-25T03:01:02;101059.78;;;18.07;37.53
38227;BME280;24026;49.446;8.576;2023-05-25T03:03:25;101049.88;;;18.08;37.85
38227;BME280;24026;49.446;8.576;2023-05-25T03:05:45;101057.97;;;17.98;38.07
38227;BME280;24026;49.446;8.576;2023-05-25T03:08:06;101062.25;;;17.99;38.31
38227;BME280;24026;49.446;8.576;2023-05-25T03:10:26;101057.69;;;18.04;37.80
38227;BME280;24026;49.446;8.576;2023-05-25T03:12:47;101051.22;;;18.00;37.80
38227;BME280;24026;49.446;8.576;2023-05-25T03:15:08;101059.03;;;17.96;37.87
38227;BME280;24026;49.446;8.576;2023-05-25T03:17:31;101061.75;;;17.96;38.07
38227;BME280;24026;49.446;8.576;2023-05-25T03:19:51;101052.59;;;17.92;37.94
38227;BME280;24026;49.446;8.576;2023-05-25T03:22:12;101056.63;;;17.95;38.07
38227;BME280;24026;49.446;8.576;2023-05-25T03:24:32;101061.47;;;17.93;37.95
38227;BME280;24026;49.446;8.576;2023-05-25T03:26:52;101068.44;;;17.94;37.93
38227;BME280;24026;49.446;8.576;2023-05-25T03:29:13;101073.31;;;17.92;38.22
38227;BME280;24026;49.446;8.576;2023-05-25T03:31:33;101066.34;;;17.91;38.15
38227;BME280;24026;49.446;8.576;2023-05-25T03:33:54;101069.31;;;17.89;38.19
38227;BME280;24026;49.446;8.576;2023-05-25T03:36:14;101076.25;;;17.85;38.31
38227;BME280;24026;49.446;8.576;2023-05-25T03:38:36;101070.09;;;17.90;38.28
38227;BME280;24026;49.446;8.576;2023-05-25T03:40:57;101076.25;;;17.90;38.55
38227;BME280;24026;49.446;8.576;2023-05-25T03:43:17;101081.13;;;17.88;38.19
38227;BME280;24026;49.446;8.576;2023-05-25T03:45:38;101076.81;;;17.87;38.02
38227;BME280;24026;49.446;8.576;2023-05-25T03:47:58;101088.66;;;17.91;38.09
38227;BME280;24026;49.446;8.576;2023-05-25T03:50:18;101081.38;;;17.87;38.30
38227;BME280;24026;49.446;8.576;2023-05-25T03:52:39;101083.53;;;17.85;38.13
38227;BME280;24026;49.446;8.576;2023-05-25T03:54:59;101092.16;;;17.87;38.42
38227;BME280;24026;49.446;8.576;2023-05-25T03:57:24;101099.16;;;17.88;38.42
38227;BME280;24026;49.446;8.576;2023-05-25T03:59:44;101100.19;;;17.82;38.55
38227;BME280;24026;49.446;8.576;2023-05-25T04:02:05;101104.25;;;17.84;38.52
38227;BME280;24026;49.446;8.576;2023-05-25T04:04:26;101105.59;;;17.87;38.46
38227;BME280;24026;49.446;8.576;2023-05-25T04:06:47;101107.72;;;17.85;38.49
38227;BME280;24026;49.446;8.576;2023-05-25T04:09:11;101105.03;;;17.85;38.39
38227;BME280;24026;49.446;8.576;2023-05-25T04:11:31;101110.97;;;17.87;38.41
38227;BME280;24026;49.446;8.576;2023-05-25T04:13:51;101107.44;;;17.86;38.40
38227;BME280;24026;49.446;8.576;2023-05-25T04:16:12;101107.19;;;17.83;38.68
38227;BME280;24026;49.446;8.576;2023-05-25T04:18:33;101115.78;;;17.85;38.44
38227;BME280;24026;49.446;8.576;2023-05-25T04:20:54;101104.50;;;17.83;38.60
38227;BME280;24026;49.446;8.576;2023-05-25T04:23:16;101116.31;;;17.82;38.66
38227;BME280;24026;49.446;8.576;2023-05-25T04:25:38;101112.03;;;17.81;38.69
38227;BME280;24026;49.446;8.576;2023-05-25T04:27:59;101116.06;;;17.83;38.38
38227;BME280;24026;49.446;8.576;2023-05-25T04:30:19;101109.31;;;17.81;38.79
38227;BME280;24026;49.446;8.576;2023-05-25T04:32:40;101110.69;;;17.83;38.63
38227;BME280;24026;49.446;8.576;2023-05-25T04:35:02;101115.78;;;17.85;38.47
38227;BME280;24026;49.446;8.576;2023-05-25T04:37:22;101118.22;;;17.86;38.82
38227;BME280;24026;49.446;8.576;2023-05-25T04:39:48;101116.06;;;17.83;38.46
38227;BME280;24026;49.446;8.576;2023-05-25T04:42:09;101119.28;;;17.85;38.57
38227;BME280;24026;49.446;8.576;2023-05-25T04:44:32;101123.06;;;17.84;38.93
38227;BME280;24026;49.446;8.576;2023-05-25T04:46:52;101121.97;;;17.80;38.79
38227;BME280;24026;49.446;8.576;2023-05-25T04:49:14;101114.44;;;17.82;38.55
38227;BME280;24026;49.446;8.576;2023-05-25T04:51:38;101116.06;;;17.83;38.79
38227;BME280;24026;49.446;8.576;2023-05-25T04:53:58;101118.75;;;17.83;38.88
38227;BME280;24026;49.446;8.576;2023-05-25T04:56:20;101119.81;;;17.82;38.93
38227;BME280;24026;49.446;8.576;2023-05-25T04:58:44;101127.59;;;17.84;38.85
38227;BME280;24026;49.446;8.576;2023-05-25T05:01:05;101124.91;;;17.84;38.58
38227;BME280;24026;49.446;8.576;2023-05-25T05:03:25;101116.59;;;17.85;38.60
38227;BME280;24026;49.446;8.576;2023-05-25T05:05:46;101129.78;;;17.87;38.67
38227;BME280;24026;49.446;8.576;2023-05-25T05:08:06;101128.13;;;17.86;38.61
38227;BME280;24026;49.446;8.576;2023-05-25T05:10:27;101123.88;;;17.90;38.83
38227;BME280;24026;49.446;8.576;2023-05-25T05:12:47;101131.16;;;17.89;38.55
38227;BME280;24026;49.446;8.576;2023-05-25T05:15:07;101130.88;;;17.91;38.77
38227;BME280;24026;49.446;8.576;2023-05-25T05:17:28;101138.38;;;17.94;38.42
38227;BME280;24026;49.446;8.576;2023-05-25T05:19:49;101135.69;;;17.94;38.64
38227;BME280;24026;49.446;8.576;2023-05-25T05:22:11;101128.69;;;17.98;38.66
38227;BME280;24026;49.446;8.576;2023-05-25T05:24:34;101136.75;;;17.98;38.50
38227;BME280;24026;49.446;8.576;2023-05-25T05:26:54;101132.69;;;18.01;38.53
38227;BME280;24026;49.446;8.576;2023-05-25T05:29:15;101135.09;;;18.07;38.59
38227;BME280;24026;49.446;8.576;2023-05-25T05:31:37;101139.16;;;18.10;38.53
38227;BME280;24026;49.446;8.576;2023-05-25T05:33:57;101132.16;;;18.04;38.80
38227;BME280;24026;49.446;8.576;2023-05-25T05:36:17;101133.81;;;18.00;38.51
38227;BME280;24026;49.446;8.576;2023-05-25T05:38:38;101135.97;;;17.98;38.77
38227;BME280;24026;49.446;8.576;2023-05-25T05:41:00;101138.94;;;17.96;38.94
38227;BME280;24026;49.446;8.576;2023-05-25T05:43:22;101136.25;;;17.91;38.98
38227;BME280;24026;49.446;8.576;2023-05-25T05:45:42;101144.00;;;17.92;39.10
38227;BME280;24026;49.446;8.576;2023-05-25T05:48:03;101139.72;;;17.91;39.22
38227;BME280;24026;49.446;8.576;2023-05-25T05:50:23;101143.22;;;17.92;39.10
38227;BME280;24026;49.446;8.576;2023-05-25T05:52:44;101144.31;;;17.91;39.35
38227;BME280;24026;49.446;8.576;2023-05-25T05:55:04;101143.22;;;17.92;39.19
38227;BME280;24026;49.446;8.576;2023-05-25T05:57:25;101147.81;;;17.91;39.29
38227;BME280;24026;49.446;8.576;2023-05-25T05:59:47;101149.13;;;17.89;39.38
38227;BME280;24026;49.446;8.576;2023-05-25T06:02:07;101153.72;;;17.88;39.53
38227;BME280;24026;49.446;8.576;2023-05-25T06:04:28;101146.19;;;17.90;39.52
38227;BME280;24026;49.446;8.576;2023-05-25T06:06:48;101154.50;;;17.89;39.54
38227;BME280;24026;49.446;8.576;2023-05-25T06:09:09;101155.31;;;17.94;39.12
38227;BME280;24026;49.446;8.576;2023-05-25T06:11:29;101151.03;;;17.93;39.63
38227;BME280;24026;49.446;8.576;2023-05-25T06:13:52;101152.63;;;18.00;39.27
38227;BME280;24026;49.446;8.576;2023-05-25T06:16:13;101156.38;;;17.99;39.30
38227;BME280;24026;49.446;8.576;2023-05-25T06:18:34;101155.31;;;18.00;39.43
38227;BME280;24026;49.446;8.576;2023-05-25T06:20:55;101154.78;;;18.03;39.38
38227;BME280;24026;49.446;8.576;2023-05-25T06:23:17;101162.28;;;18.06;39.11
38227;BME280;24026;49.446;8.576;2023-05-25T06:25:38;101159.88;;;18.09;39.41
38227;BME280;24026;49.446;8.576;2023-05-25T06:27:58;101169.25;;;18.12;39.07
38227;BME280;24026;49.446;8.576;2023-05-25T06:30:18;101169.78;;;18.14;38.98
38227;BME280;24026;49.446;8.576;2023-05-25T06:32:39;101170.06;;;18.18;39.10
38227;BME280;24026;49.446;8.576;2023-05-25T06:35:01;101166.00;;;18.20;39.01
38227;BME280;24026;49.446;8.576;2023-05-25T06:37:22;101168.44;;;18.22;38.79
38227;BME280;24026;49.446;8.576;2023-05-25T06:39:42;101171.38;;;18.25;39.19
38227;BME280;24026;49.446;8.576;2023-05-25T06:42:04;101179.69;;;18.29;39.03
38227;BME280;24026;49.446;8.576;2023-05-25T06:44:25;101183.22;;;18.29;39.03
38227;BME280;24026;49.446;8.576;2023-05-25T06:46:45;101187.22;;;18.32;39.10
38227;BME280;24026;49.446;8.576;2023-05-25T06:49:06;101188.84;;;18.33;38.93
38227;BME280;24026;49.446;8.576;2023-05-25T06:51:27;101192.88;;;18.36;38.75
38227;BME280;24026;49.446;8.576;2023-05-25T06:53:48;101191.78;;;18.37;39.02
38227;BME280;24026;49.446;8.576;2023-05-25T06:56:08;101199.88;;;18.37;38.89
38227;BME280;24026;49.446;8.576;2023-05-25T06:58:28;101196.34;;;18.41;38.98
38227;BME280;24026;49.446;8.576;2023-05-25T07:00:49;101199.31;;;18.45;38.64
38227;BME280;24026;49.446;8.576;2023-05-25T07:03:09;101189.59;;;18.44;39.16
38227;BME280;24026;49.446;8.576;2023-05-25T07:05:30;101188.78;;;18.48;38.99
38227;BME280;24026;49.446;8.576;2023-05-25T07:07:51;101189.84;;;18.52;38.83
38227;BME280;24026;49.446;8.576;2023-05-25T07:10:12;101175.31;;;18.54;38.75
38227;BME280;24026;49.446;8.576;2023-05-25T07:12:32;101177.22;;;18.53;38.99
38227;BME280;24026;49.446;8.576;2023-05-25T07:14:53;101182.31;;;18.55;38.90
38227;BME280;24026;49.446;8.576;2023-05-25T07:17:15;101183.91;;;18.56;39.03
38227;BME280;24026;49.446;8.576;2023-05-25T07:19:37;101184.47;;;18.58;38.70
38227;BME280;24026;49.446;8.576;2023-05-25T07:21:58;101176.91;;;18.60;38.96
38227;BME280;24026;49.446;8.576;2023-05-25T07:24:19;101175.00;;;18.60;38.77
38227;BME280;24026;49.446;8.576;2023-05-25T07:26:39;101179.06;;;18.63;38.77
38227;BME280;24026;49.446;8.576;2023-05-25T07:28:59;101180.66;;;18.64;38.90
38227;BME280;24026;49.446;8.576;2023-05-25T07:31:20;101183.06;;;18.65;38.61
38227;BME280;24026;49.446;8.576;2023-05-25T07:33:42;101187.06;;;18.73;38.45
38227;BME280;24026;49.446;8.576;2023-05-25T07:36:03;101186.81;;;18.75;38.77
38227;BME280;24026;49.446;8.576;2023-05-25T07:38:23;101182.72;;;18.77;38.74
38227;BME280;24026;49.446;8.576;2023-05-25T07:40:44;101183.81;;;18.81;38.30
38227;BME280;24026;49.446;8.576;2023-05-25T07:43:06;101179.75;;;18.84;38.46
38227;BME280;24026;49.446;8.576;2023-05-25T07:45:28;101180.00;;;18.87;38.55
38227;BME280;24026;49.446;8.576;2023-05-25T07:47:49;101189.19;;;18.86;38.56
38227;BME280;24026;49.446;8.576;2023-05-25T07:50:09;101180.56;;;18.90;38.27
38227;BME280;24026;49.446;8.576;2023-05-25T07:52:31;101193.44;;;18.93;38.64
38227;BME280;24026;49.446;8.576;2023-05-25T07:54:52;101189.97;;;18.92;38.58
38227;BME280;24026;49.446;8.576;2023-05-25T07:57:12;101185.91;;;18.95;38.43
38227;BME280;24026;49.446;8.576;2023-05-25T07:59:33;101187.22;;;18.97;38.63
38227;BME280;24026;49.446;8.576;2023-05-25T08:01:53;101184.50;;;19.02;38.37
38227;BME280;24026;49.446;8.576;2023-05-25T08:04:13;101179.34;;;19.06;38.56
38227;BME280;24026;49.446;8.576;2023-05-25T08:06:34;101183.69;;;19.07;38.60
38227;BME280;24026;49.446;8.576;2023-05-25T08:08:54;101180.16;;;19.12;38.40
38227;BME280;24026;49.446;8.576;2023-05-25T08:11:16;101183.88;;;19.16;38.47
38227;BME280;24026;49.446;8.576;2023-05-25T08:13:37;101181.44;;;19.19;38.15
38227;BME280;24026;49.446;8.576;2023-05-25T08:15:58;101183.31;;;19.19;38.44
38227;BME280;24026;49.446;8.576;2023-05-25T08:18:18;101172.28;;;19.20;37.98
38227;BME280;24026;49.446;8.576;2023-05-25T08:20:38;101171.44;;;19.25;38.24
38227;BME280;24026;49.446;8.576;2023-05-25T08:22:59;101174.94;;;19.25;38.21
38227;BME280;24026;49.446;8.576;2023-05-25T08:25:20;101173.84;;;19.27;38.00
38227;BME280;24026;49.446;8.576;2023-05-25T08:27:41;101176.78;;;19.30;37.64
38227;BME280;24026;49.446;8.576;2023-05-25T08:30:05;101178.66;;;19.35;38.10
38227;BME280;24026;49.446;8.576;2023-05-25T08:32:26;101177.31;;;19.32;38.06
38227;BME280;24026;49.446;8.576;2023-05-25T08:34:46;101176.47;;;19.37;38.05
38227;BME280;24026;49.446;8.576;2023-05-25T08:37:06;101171.31;;;19.40;38.13
38227;BME280;24026;49.446;8.576;2023-05-25T08:39:27;101179.13;;;19.42;38.54
38227;BME280;24026;49.446;8.576;2023-05-25T08:41:48;101175.63;;;19.41;38.10
38227;BME280;24026;49.446;8.576;2023-05-25T08:44:10;101179.63;;;19.44;38.38
38227;BME280;24026;49.446;8.576;2023-05-25T08:46:31;101191.75;;;19.47;38.27
38227;BME280;24026;49.446;8.576;2023-05-25T08:48:52;101185.25;;;19.48;38.54
38227;BME280;24026;49.446;8.576;2023-05-25T08:51:15;101188.75;;;19.53;38.57
38227;BME280;24026;49.446;8.576;2023-05-25T08:53:38;101179.28;;;19.56;38.63
38227;BME280;24026;49.446;8.576;2023-05-25T08:56:03;101185.22;;;19.58;38.31
38227;BME280;24026;49.446;8.576;2023-05-25T08:58:32;101180.31;;;19.60;38.41
38227;BME280;24026;49.446;8.576;2023-05-25T09:00:56;101175.97;;;19.64;38.68
38227;BME280;24026;49.446;8.576;2023-05-25T09:03:18;101178.91;;;19.68;38.44
38227;BME280;24026;49.446;8.576;2023-05-25T09:05:39;101174.56;;;19.72;38.12
38227;BME280;24026;49.446;8.576;2023-05-25T09:08:00;101185.31;;;19.77;38.45
38227;BME280;24026;49.446;8.576;2023-05-25T09:10:23;101185.56;;;19.80;38.20
38227;BME280;24026;49.446;8.576;2023-05-25T09:12:45;101183.38;;;19.83;38.40
38227;BME280;24026;49.446;8.576;2023-05-25T09:15:09;101187.13;;;19.87;38.06
38227;BME280;24026;49.446;8.576;2023-05-25T09:17:31;101182.75;;;19.91;38.24
38227;BME280;24026;49.446;8.576;2023-05-25T09:19:52;101188.16;;;19.91;38.18
38227;BME280;24026;49.446;8.576;2023-05-25T09:22:12;101184.31;;;19.97;38.03
38227;BME280;24026;49.446;8.576;2023-05-25T09:24:33;101182.94;;;19.99;38.04
38227;BME280;24026;49.446;8.576;2023-05-25T09:26:54;101194.25;;;20.02;38.19
38227;BME280;24026;49.446;8.576;2023-05-25T09:29:15;101188.31;;;20.05;37.85
38227;BME280;24026;49.446;8.576;2023-05-25T09:31:36;101184.22;;;20.07;38.13
38227;BME280;24026;49.446;8.576;2023-05-25T09:33:56;101183.38;;;20.12;37.98
38227;BME280;24026;49.446;8.576;2023-05-25T09:36:19;101179.31;;;20.09;38.08
38227;BME280;24026;49.446;8.576;2023-05-25T09:38:40;101179.88;;;20.11;38.21
38227;BME280;24026;49.446;8.576;2023-05-25T09:41:02;101179.53;;;20.18;38.18
38227;BME280;24026;49.446;8.576;2023-05-25T09:43:23;101183.53;;;20.21;37.84
38227;BME280;24026;49.446;8.576;2023-05-25T09:45:44;101182.16;;;20.23;38.00
38227;BME280;24026;49.446;8.576;2023-05-25T09:48:05;101174.00;;;20.28;37.85
38227;BME280;24026;49.446;8.576;2023-05-25T09:50:29;101175.31;;;20.31;37.96
38227;BME280;24026;49.446;8.576;2023-05-25T09:52:51;101175.81;;;20.33;37.73
38227;BME280;24026;49.446;8.576;2023-05-25T09:55:11;101186.03;;;20.36;37.81
38227;BME280;24026;49.446;8.576;2023-05-25T09:57:34;101170.91;;;20.40;37.80
38227;BME280;24026;49.446;8.576;2023-05-25T09:59:55;101184.09;;;20.42;37.50
38227;BME280;24026;49.446;8.576;2023-05-25T10:02:17;101187.03;;;20.45;37.89
38227;BME280;24026;49.446;8.576;2023-05-25T10:04:38;101175.94;;;20.47;37.47
38227;BME280;24026;49.446;8.576;2023-05-25T10:07:00;101186.97;;;20.50;37.75
38227;BME280;24026;49.446;8.576;2023-05-25T10:09:21;101174.19;;;20.56;37.60
38227;BME280;24026;49.446;8.576;2023-05-25T10:11:45;101182.28;;;20.56;37.49
38227;BME280;24026;49.446;8.576;2023-05-25T10:14:08;101185.53;;;20.58;37.39
38227;BME280;24026;49.446;8.576;2023-05-25T10:16:33;101180.63;;;20.60;37.52
38227;BME280;24026;49.446;8.576;2023-05-25T10:21:17;101185.13;;;20.70;37.54
38227;BME280;24026;49.446;8.576;2023-05-25T10:23:46;101186.94;;;20.75;37.45
38227;BME280;24026;49.446;8.576;2023-05-25T10:26:07;101192.59;;;20.78;37.47
38227;BME280;24026;49.446;8.576;2023-05-25T10:28:30;101186.28;;;20.83;37.25
38227;BME280;24026;49.446;8.576;2023-05-25T10:30:56;101182.81;;;20.82;37.30
38227;BME280;24026;49.446;8.576;2023-05-25T10:33:19;101187.34;;;20.87;37.40
38227;BME280;24026;49.446;8.576;2023-05-25T10:35:43;101182.66;;;20.92;37.30
38227;BME280;24026;49.446;8.576;2023-05-25T10:38:04;101186.97;;;20.94;37.16
38227;BME280;24026;49.446;8.576;2023-05-25T10:40:25;101178.28;;;20.97;37.15
38227;BME280;24026;49.446;8.576;2023-05-25T10:42:46;101179.31;;;21.01;37.02
38227;BME280;24026;49.446;8.576;2023-05-25T10:45:07;101179.81;;;21.03;37.29
38227;BME280;24026;49.446;8.576;2023-05-25T10:47:28;101175.44;;;21.07;37.12
38227;BME280;24026;49.446;8.576;2023-05-25T10:49:55;101171.13;;;21.06;37.12
38227;BME280;24026;49.446;8.576;2023-05-25T10:52:17;101171.03;;;21.11;36.81
38227;BME280;24026;49.446;8.576;2023-05-25T10:54:38;101179.66;;;21.13;36.68
38227;BME280;24026;49.446;8.576;2023-05-25T10:57:09;101182.06;;;21.15;36.87
38227;BME280;24026;49.446;8.576;2023-05-25T10:59:30;101168.47;;;21.20;37.00
38227;BME280;24026;49.446;8.576;2023-05-25T11:01:50;101180.88;;;21.21;36.99
38227;BME280;24026;49.446;8.576;2023-05-25T11:09:00;101167.59;;;21.24;36.82
38227;BME280;24026;49.446;8.576;2023-05-25T11:14:02;101167.09;;;21.22;36.99
38227;BME280;24026;49.446;8.576;2023-05-25T11:16:30;101162.38;;;21.28;36.63
38227;BME280;24026;49.446;8.576;2023-05-25T11:18:57;101167.72;;;21.33;36.92
38227;BME280;24026;49.446;8.576;2023-05-25T11:24:02;101168.63;;;21.28;36.97
38227;BME280;24026;49.446;8.576;2023-05-25T11:26:28;101166.84;;;21.38;36.83
38227;BME280;24026;49.446;8.576;2023-05-25T11:28:56;101163.53;;;21.41;36.66
38227;BME280;24026;49.446;8.576;2023-05-25T11:31:19;101167.25;;;21.45;36.74
38227;BME280;24026;49.446;8.576;2023-05-25T11:33:41;101158.06;;;21.46;36.72
38227;BME280;24026;49.446;8.576;2023-05-25T11:36:06;101163.69;;;21.50;36.70
38227;BME280;24026;49.446;8.576;2023-05-25T11:38:27;101148.78;;;21.52;36.50
38227;BME280;24026;49.446;8.576;2023-05-25T11:40:47;101152.00;;;21.54;36.74
38227;BME280;24026;49.446;8.576;2023-05-25T11:43:08;101145.41;;;21.60;36.71
38227;BME280;24026;49.446;8.576;2023-05-25T11:45:31;101152.19;;;21.58;36.93
38227;BME280;24026;49.446;8.576;2023-05-25T11:47:54;101148.03;;;21.65;36.54
38227;BME280;24026;49.446;8.576;2023-05-25T11:50:15;101150.13;;;21.69;36.71
38227;BME280;24026;49.446;8.576;2023-05-25T11:52:38;101143.91;;;21.68;36.68
38227;BME280;24026;49.446;8.576;2023-05-25T11:54:59;101152.22;;;21.72;36.67
38227;BME280;24026;49.446;8.576;2023-05-25T11:57:22;101148.63;;;21.76;36.60
38227;BME280;24026;49.446;8.576;2023-05-25T12:00:02;101151.91;;;21.73;36.57
38227;BME280;24026;49.446;8.576;2023-05-25T12:02:26;101146.13;;;21.80;36.42
38227;BME280;24026;49.446;8.576;2023-05-25T12:04:58;101149.13;;;21.78;36.49
38227;BME280;24026;49.446;8.576;2023-05-25T12:07:19;101145.53;;;21.83;36.57
38227;BME280;24026;49.446;8.576;2023-05-25T12:09:39;101138.72;;;21.86;36.48
38227;BME280;24026;49.446;8.576;2023-05-25T12:12:02;101144.03;;;21.91;36.77
38227;BME280;24026;49.446;8.576;2023-05-25T12:14:23;101136.72;;;21.91;36.43
38227;BME280;24026;49.446;8.576;2023-05-25T12:16:44;101141.22;;;21.96;36.25
38227;BME280;24026;49.446;8.576;2023-05-25T12:19:05;101130.59;;;21.99;36.26
38227;BME280;24026;49.446;8.576;2023-05-25T12:21:27;101135.44;;;22.02;36.27
38227;BME280;24026;49.446;8.576;2023-05-25T12:23:49;101129.41;;;22.06;36.02
38227;BME280;24026;49.446;8.576;2023-05-25T12:26:14;101125.28;;;22.08;35.94
38227;BME280;24026;49.446;8.576;2023-05-25T12:28:35;101127.19;;;22.08;36.07
38227;BME280;24026;49.446;8.576;2023-05-25T12:30:56;101124.88;;;22.15;36.29
38227;BME280;24026;49.446;8.576;2023-05-25T12:33:16;101120.28;;;22.15;36.08
38227;BME280;24026;49.446;8.576;2023-05-25T12:35:46;101114.59;;;22.17;36.02